Basenerd Banner
Loading games...
Justin Crawford
Justin Crawford
Philadelphia Phillies • Outfielder
Age 22 • 6' 2" • 188 lb
Bats: L • Throws: R
MLB Debut: 2026-03-26
Born: Phoenix , AZ • USA
Draft: 2022
2026 Stats
G
130
AB
372
H
99
HR
2
RBI
35
R
44
SB
16
AVG
.266
OBP
.315
SLG
.349
OPS
.664
Career Stats
G
130
AB
372
H
99
HR
2
RBI
35
R
44
SB
16
AVG
.266
OBP
.315
SLG
.349
OPS
.664
Year-by-Year Hitting
Year Team GPAABH HRRBISB AVGOBPSLGOPSAwards
2026 PHI 130 408 372 99 2 35 16 .266 .315 .349 .664
Spring Training
Hitting
YearTeamGPAABHHRRBISBAVGOBPSLGOPS
2024 PHI 111 .000.000.000.000
2025 PHI 813114 2 .364.462.364.826
2026 PHI 18555213 23 .250.291.346.637
Game Logs
Season selector loads one year at a time.
Hitting
Date Opponent AB H 2B 3B HR RBI R BB SO
2026-09-02 @ AZ 3 0 0 0 0 0 0 0 1
2026-09-01 @ AZ 1 1 0 0 0 1 1 0 0
2026-08-31 @ AZ 4 1 0 0 0 0 0 0 1
2026-08-30 @ LAA 0 0 0 0 0 0 0 0 0
2026-08-29 @ LAA 3 1 0 0 0 0 1 1 1
2026-08-28 @ LAA 1 0 0 0 0 0 1 1 0
2026-08-26 @ SEA 4 1 0 0 0 1 1 0 0
2026-08-25 @ SEA 3 1 0 0 0 1 0 1 0
2026-08-24 @ SEA 3 0 0 0 0 0 0 0 0
2026-08-23 vs STL 3 0 0 0 0 0 1 1 0
2026-08-22 vs STL 2 1 0 0 0 0 1 0 0
2026-08-21 vs STL 1 0 0 0 0 1 0 0 0
2026-08-19 vs MIA 3 1 0 0 0 0 0 0 0
2026-08-18 vs MIA 4 2 0 0 0 1 0 0 1
2026-08-17 vs MIA 1 1 1 0 0 0 1 0 0
2026-08-16 @ MIN 2 1 1 0 0 0 0 0 0
2026-08-15 @ MIN 1 0 0 0 0 0 0 0 0
2026-08-13 @ MIN 4 1 0 0 0 0 0 0 1
2026-08-12 @ STL 3 1 0 0 0 0 0 0 0
2026-08-11 @ STL 3 0 0 0 0 0 0 0 0
2026-08-10 @ STL 4 1 1 0 0 0 1 0 1
2026-08-09 vs TOR 2 1 0 0 0 0 1 0 0
2026-08-08 vs TOR 4 1 0 1 0 1 0 1 0
2026-08-07 vs TOR 2 1 1 0 0 0 1 2 0
2026-08-06 vs WSH 3 1 0 0 0 1 0 0 1
2026-08-05 vs WSH 1 0 0 0 0 1 0 0 0
2026-08-04 vs WSH 4 2 0 0 0 0 1 0 1
2026-08-03 vs WSH 0 0 0 0 0 0 1 0 0
2026-08-02 @ BAL 3 2 1 0 0 2 2 0 0
2026-08-01 @ BAL 4 1 0 0 0 2 0 0 0
2026-07-31 @ BAL 4 1 0 0 0 0 0 0 0
2026-07-29 @ MIA 3 2 0 0 0 0 1 1 1
2026-07-28 @ MIA 3 0 0 0 0 0 0 0 0
2026-07-27 @ MIA 4 1 0 0 0 1 0 0 0
2026-07-26 vs NYY 3 1 0 0 0 0 1 0 0
2026-07-25 vs NYY 1 0 0 0 0 0 0 0 0
2026-07-24 vs NYY 2 0 0 0 0 0 0 0 1
2026-07-21 vs LAD 0 0 0 0 0 0 0 0 0
2026-07-20 vs LAD 3 1 0 0 0 1 0 0 0
2026-07-19 vs NYM 3 0 0 0 0 0 0 0 2
2026-07-18 vs NYM 1 0 0 0 0 0 0 0 0
2026-07-16 vs NYM 3 0 0 0 0 0 0 0 0
2026-07-09 @ CIN 3 1 0 0 0 1 0 0 0
2026-07-08 @ CIN 3 2 0 1 0 1 1 1 1
2026-07-07 @ CIN 4 2 0 0 0 0 1 0 1
2026-07-06 @ KC 1 0 0 0 0 0 0 0 1
2026-07-05 @ KC 2 1 0 0 0 0 0 0 0
2026-07-04 @ KC 4 1 0 0 0 0 0 0 1
2026-07-02 vs PIT 3 0 0 0 0 0 0 0 0
2026-07-01 vs PIT 4 1 0 0 0 0 1 0 0
2026-06-30 vs PIT 3 3 1 0 0 3 1 0 0
2026-06-29 vs PIT 4 2 0 0 0 0 1 0 1
2026-06-28 @ NYM 4 1 0 0 0 0 1 0 0
2026-06-27 @ NYM 3 1 0 0 0 0 0 0 1
2026-06-26 @ NYM 2 0 0 0 0 0 0 0 1
2026-06-25 @ WSH 5 2 0 0 0 0 1 0 1
2026-06-24 @ WSH 3 0 0 0 0 0 0 0 0
2026-06-23 @ WSH 4 1 1 0 0 0 0 1 2
2026-06-22 @ WSH 1 0 0 0 0 0 0 0 1
2026-06-21 vs NYM 0 0 0 0 0 0 0 0 0
2026-06-20 vs NYM 3 2 1 0 0 1 1 1 1
2026-06-18 vs NYM 4 1 0 0 0 1 0 0 1
2026-06-17 vs MIA 4 1 0 0 0 0 1 0 1
2026-06-16 vs MIA 3 0 0 0 0 0 0 0 1
2026-06-15 vs MIA 4 3 0 0 0 1 1 0 0
2026-06-14 @ MIL 1 1 0 0 0 0 0 0 0
2026-06-13 @ MIL 1 0 0 0 0 0 0 0 1
2026-06-12 @ MIL 3 0 0 0 0 0 0 0 3
2026-06-10 @ TOR 4 1 0 0 0 0 1 0 1
2026-06-09 @ TOR 2 0 0 0 0 0 0 0 0
2026-06-08 @ TOR 1 1 0 0 0 0 0 0 0
2026-06-07 vs CWS 4 1 0 0 0 1 1 0 1
2026-06-06 vs CWS 2 0 0 0 0 0 0 0 1
2026-06-05 vs CWS 0 0 0 0 0 0 0 0 0
2026-06-04 vs SD 3 1 1 0 0 0 2 1 0
2026-06-03 vs SD 3 0 0 0 0 0 0 0 2
2026-06-02 vs SD 4 1 0 0 0 0 0 0 0
2026-05-31 @ LAD 4 1 1 0 0 0 0 0 1
2026-05-30 @ LAD 3 1 0 0 0 0 1 0 1
2026-05-27 @ SD 3 1 0 0 0 0 1 0 0
2026-05-26 @ SD 4 0 0 0 0 0 0 0 0
2026-05-25 @ SD 3 0 0 0 0 0 0 0 1
2026-05-24 vs CLE 2 0 0 0 0 0 0 0 0
2026-05-23 vs CLE 4 0 0 0 0 0 0 0 1
2026-05-22 vs CLE 3 0 0 0 0 0 0 0 1
2026-05-20 vs CIN 2 0 0 0 0 0 0 0 1
2026-05-19 vs CIN 2 0 0 0 0 0 0 0 1
2026-05-18 vs CIN 4 1 0 0 0 0 0 0 0
2026-05-17 @ PIT 4 0 0 0 0 1 0 0 0
2026-05-16 @ PIT 2 0 0 0 0 0 1 2 0
2026-05-15 @ PIT 5 2 0 0 0 0 0 0 0
2026-05-14 @ BOS 1 0 0 0 0 0 0 0 0
2026-05-13 @ BOS 3 1 0 0 1 1 1 0 1
2026-05-12 @ BOS 2 0 0 0 0 0 0 1 2
2026-05-10 vs COL 2 0 0 0 0 0 0 1 0
2026-05-09 vs COL 1 0 0 0 0 0 0 0 0
2026-05-08 vs COL 4 3 0 0 1 2 1 1 1
2026-05-07 vs ATH 3 1 0 0 0 0 0 0 1
2026-05-06 vs ATH 2 0 0 0 0 1 0 0 1
2026-05-05 vs ATH 4 2 1 0 0 0 1 0 1
2026-05-04 @ MIA 3 0 0 0 0 0 0 0 2
2026-05-03 @ MIA 4 1 0 0 0 1 0 0 0
2026-05-01 @ MIA 3 1 1 0 0 1 0 1 0
2026-04-30 vs SF 4 3 0 0 0 1 0 0 0
2026-04-30 vs SF 4 1 0 1 0 0 0 0 0
2026-04-28 vs SF 4 1 0 0 0 1 1 0 2
2026-04-25 @ ATL 5 1 0 0 0 0 0 0 2
2026-04-24 @ ATL 4 0 0 0 0 0 0 0 0
2026-04-23 @ CHC 5 0 0 0 0 0 0 0 1
2026-04-22 @ CHC 4 1 0 0 0 1 0 0 1
2026-04-20 @ CHC 2 1 1 0 0 1 0 2 0
2026-04-19 vs ATL 3 1 0 0 0 0 0 1 0
2026-04-17 vs ATL 2 0 0 0 0 0 0 0 0
2026-04-15 vs CHC 1 0 0 0 0 0 0 0 0
2026-04-14 vs CHC 3 0 0 0 0 0 0 0 1
2026-04-13 vs CHC 5 0 0 0 0 0 0 0 2
2026-04-12 vs AZ 4 1 1 0 0 0 1 0 1
2026-04-11 vs AZ 2 2 1 0 0 0 1 1 0
2026-04-10 vs AZ 2 1 0 1 0 0 0 1 1
2026-04-08 @ SF 2 0 0 0 0 0 0 0 1
2026-04-07 @ SF 3 0 0 0 0 0 0 0 1
2026-04-06 @ SF 3 2 1 0 0 0 2 1 1
2026-04-05 @ COL 3 1 0 0 0 0 0 0 0
2026-04-04 @ COL 4 1 0 0 0 0 0 0 0
2026-04-03 @ COL 4 0 0 0 0 0 0 0 1
2026-04-01 vs WSH 5 3 1 0 0 1 0 0 1
2026-03-31 vs WSH 3 1 0 0 0 0 1 0 0
2026-03-29 vs TEX 3 1 0 0 0 0 1 0 2
2026-03-28 vs TEX 2 0 0 0 0 0 0 1 1
2026-03-26 vs TEX 4 2 0 0 0 0 1 0 0
Transactions
Entire history • newest first.
2026-04-16
CF Justin Crawford changed number to 2.
2026-04-15
CF Justin Crawford changed number to 42.
2026-03-25
Philadelphia Phillies selected the contract of CF Justin Crawford from Lehigh Valley IronPigs.
2026-01-23
Philadelphia Phillies invited non-roster CF Justin Crawford to spring training.
2025-01-14
Philadelphia Phillies invited non-roster CF Justin Crawford to spring training.
2024-03-18
OF Justin Crawford assigned to Philadelphia Phillies.
2023-03-17
OF Justin Crawford and assigned to Philadelphia Phillies.
2022-07-25
Philadelphia Phillies signed OF Justin Crawford.
Scouting Report
Statcast-style percentiles • Basenerd theme
Season 2026
No Statcast percentile data available.
Spray Chart
Hits only • Stadium overlay
1B 2B 3B HR
MLBAM-style coords scaled into stadium viewBox. Home plate baseline ≈ (125, 199). Stadium SVG: phillies.svg.
Results by Pitch Type
Pitch # Usage% Zone% Whiff% AVG HardHit%
4-Seam Fastball 600 40.6% 56.7% 15.3% .315 46.2%
Sinker 251 17.0% 55.0% 5.7% .328 45.1%
Slider 146 9.9% 47.9% 7.8% .233 30.6%
Changeup 118 8.0% 33.9% 20.0% .214 22.9%
Cutter 106 7.2% 44.3% 20.3% .160 26.1%
Curveball 96 6.5% 43.8% 22.0% .188 29.2%
Sweeper 83 5.6% 41.0% 21.6% .333 25.0%
Splitter 56 3.8% 37.5% 17.6% .158 31.6%
Knuckle Curve 18 1.2% 38.9% 20.0% .333 16.7%
Slurve 3 0.2% 33.3% 0.0% .000 0.0%
Forkball 1 0.1% 0.0% 0.0% .000 0.0%
Total 1478 100.0% 50.1% 14.9% .268 35.7%
Results by Pitch Category
Category # Usage% Zone% Whiff% AVG HardHit%
Fastball 957 64.7% 54.9% 13.6% .300 43.0%
Breaking 346 23.4% 44.5% 15.9% .250 27.9%
Offspeed 175 11.8% 34.9% 19.2% .197 25.9%
Total 1478 100.0% 50.1% 14.9% .268 35.7%
MLB Avg - - 50.6% 25.3% .245 41.0%
More